createdAt,value
2022-11-07T00:01:11.246Z,93.40
2022-11-07T00:03:39.378Z,93.70
2022-11-07T00:06:07.854Z,93.50
2022-11-07T00:08:36.033Z,93.30
2022-11-07T00:11:06.186Z,93.30
2022-11-07T00:13:34.339Z,93.70
2022-11-07T00:16:03.488Z,93.70
2022-11-07T00:18:31.556Z,93.60
2022-11-07T00:21:02.752Z,93.60
2022-11-07T00:23:30.764Z,93.60
2022-11-07T00:26:02.994Z,93.50
2022-11-07T00:28:34.481Z,93.60
2022-11-07T00:31:02.373Z,93.50
2022-11-07T00:33:30.284Z,93.60
2022-11-07T00:35:58.143Z,93.50
2022-11-07T00:38:26.090Z,93.60
2022-11-07T00:40:57.314Z,93.90
2022-11-07T00:43:25.717Z,93.80
2022-11-07T00:45:55.144Z,93.80
2022-11-07T00:48:23.220Z,93.80
2022-11-07T00:50:51.209Z,93.70
2022-11-07T00:53:19.242Z,93.80
2022-11-07T00:55:47.490Z,93.80
2022-11-07T00:58:16.885Z,93.80
2022-11-07T01:00:44.989Z,93.70
2022-11-07T01:03:31.608Z,93.90
2022-11-07T01:06:00.756Z,93.80
2022-11-07T01:08:29.257Z,93.80
2022-11-07T01:10:57.794Z,93.80
2022-11-07T01:13:26.696Z,93.90
2022-11-07T01:15:54.654Z,94.10
2022-11-07T01:18:23.897Z,94.00
2022-11-07T01:20:51.784Z,94.30
2022-11-07T01:23:19.707Z,94.00
2022-11-07T01:25:47.573Z,94.00
2022-11-07T01:28:15.509Z,93.90
2022-11-07T01:30:45.245Z,94.00
2022-11-07T01:33:13.995Z,93.90
2022-11-07T01:35:43.532Z,93.90
2022-11-07T01:38:11.409Z,93.90
2022-11-07T01:41:05.030Z,94.00
2022-11-07T01:43:44.068Z,94.20
2022-11-07T01:46:12.347Z,94.20
2022-11-07T01:48:41.942Z,94.20
2022-11-07T01:51:12.842Z,94.10
2022-11-07T01:53:41.890Z,94.10
2022-11-07T01:56:15.064Z,94.00
2022-11-07T01:58:44.019Z,93.90
2022-11-07T02:01:12.212Z,93.90
2022-11-07T02:03:40.461Z,93.90
2022-11-07T02:06:14.431Z,93.90
2022-11-07T02:08:45.514Z,94.00
2022-11-07T02:11:14.372Z,94.00
2022-11-07T02:13:42.410Z,94.20
2022-11-07T02:16:10.549Z,94.10
2022-11-07T02:18:41.094Z,93.70
2022-11-07T02:21:19.024Z,94.20
2022-11-07T02:23:53.904Z,94.10
2022-11-07T02:26:23.778Z,94.20
2022-11-07T02:28:54.031Z,94.00
2022-11-07T02:31:21.900Z,94.00
2022-11-07T02:33:49.773Z,94.00
2022-11-07T02:36:22.354Z,94.00
2022-11-07T02:38:57.329Z,94.00
2022-11-07T02:41:30.385Z,94.00
2022-11-07T02:44:01.864Z,94.20
2022-11-07T02:46:32.146Z,94.20
2022-11-07T02:49:02.319Z,94.20
2022-11-07T02:51:30.590Z,94.10
2022-11-07T02:53:58.553Z,94.20
2022-11-07T02:56:27.894Z,94.20
2022-11-07T02:58:55.857Z,94.20
2022-11-07T03:01:25.170Z,94.20
2022-11-07T03:03:53.269Z,94.20
2022-11-07T03:06:22.933Z,94.20
2022-11-07T03:08:50.787Z,94.20
2022-11-07T03:11:19.908Z,94.30
2022-11-07T03:13:51.017Z,94.30
2022-11-07T03:16:20.422Z,94.20
2022-11-07T03:18:48.378Z,94.30
2022-11-07T03:21:16.346Z,94.50
2022-11-07T03:23:44.228Z,94.30
2022-11-07T03:26:12.099Z,94.30
2022-11-07T03:28:40.392Z,94.30
2022-11-07T03:31:09.619Z,94.30
2022-11-07T03:33:37.514Z,94.40
2022-11-07T03:36:06.158Z,94.40
2022-11-07T03:38:34.046Z,94.50
2022-11-07T03:41:01.911Z,94.50
2022-11-07T03:43:29.780Z,94.50
2022-11-07T03:45:57.715Z,94.40
2022-11-07T03:48:26.953Z,94.40
2022-11-07T03:50:54.826Z,94.40
2022-11-07T03:53:25.789Z,94.40
2022-11-07T03:55:56.193Z,94.40
2022-11-07T03:58:24.394Z,94.40
2022-11-07T04:00:52.656Z,94.40
2022-11-07T04:03:20.528Z,94.40
2022-11-07T04:05:49.729Z,94.50
2022-11-07T04:08:17.697Z,94.60
2022-11-07T04:10:45.555Z,94.60
2022-11-07T04:13:30.922Z,94.60
2022-11-07T04:16:24.697Z,94.50
2022-11-07T04:18:52.566Z,94.50
2022-11-07T04:21:21.967Z,94.50
2022-11-07T04:23:49.844Z,94.40
2022-11-07T04:26:35.302Z,94.50
2022-11-07T04:29:03.158Z,94.50
2022-11-07T04:31:31.223Z,94.40
2022-11-07T04:33:59.063Z,94.60
2022-11-07T04:36:28.340Z,94.70
2022-11-07T04:38:56.163Z,94.70
2022-11-07T04:41:25.427Z,94.60
2022-11-07T04:43:53.266Z,94.60
2022-11-07T04:46:23.071Z,94.60
2022-11-07T04:48:50.926Z,94.60
2022-11-07T04:51:21.740Z,94.50
2022-11-07T04:53:50.956Z,94.50
2022-11-07T04:56:18.786Z,94.50
2022-11-07T04:58:46.618Z,94.50
2022-11-07T05:01:14.620Z,94.60
2022-11-07T05:03:42.505Z,94.60
2022-11-07T05:06:13.492Z,94.60
2022-11-07T05:08:41.366Z,94.60
2022-11-07T05:11:10.613Z,94.60
2022-11-07T05:13:38.489Z,94.60
2022-11-07T05:16:07.084Z,94.60
2022-11-07T05:18:34.969Z,94.70
2022-11-07T05:21:02.838Z,94.80
2022-11-07T05:23:30.721Z,94.80
2022-11-07T05:25:58.590Z,94.80
2022-11-07T05:28:37.004Z,94.70
2022-11-07T05:31:08.396Z,94.90
2022-11-07T05:33:36.880Z,94.80
2022-11-07T05:36:15.352Z,94.50
2022-11-07T05:38:44.627Z,94.70
2022-11-07T05:41:12.968Z,94.80
2022-11-07T05:43:42.335Z,94.70
2022-11-07T05:46:10.659Z,94.60
2022-11-07T05:48:39.296Z,94.60
2022-11-07T05:51:08.832Z,94.60
2022-11-07T05:53:36.990Z,94.60
2022-11-07T05:56:05.215Z,94.50
2022-11-07T05:58:33.102Z,94.50
2022-11-07T06:01:06.731Z,94.50
2022-11-07T06:03:35.041Z,94.50
2022-11-07T06:06:03.097Z,94.50
2022-11-07T06:08:31.146Z,94.50
2022-11-07T06:10:59.036Z,94.40
2022-11-07T06:13:26.898Z,94.30
2022-11-07T06:15:54.757Z,94.10
2022-11-07T06:18:23.981Z,93.90
2022-11-07T06:20:51.845Z,94.10
2022-11-07T06:23:20.441Z,94.00
2022-11-07T06:25:49.091Z,94.20
2022-11-07T06:28:16.997Z,94.40
2022-11-07T06:30:46.812Z,94.50
2022-11-07T06:33:18.694Z,94.50
2022-11-07T06:35:48.502Z,94.50
2022-11-07T06:38:16.695Z,94.50
2022-11-07T06:40:45.278Z,94.30
2022-11-07T06:43:15.509Z,94.40
2022-11-07T06:45:44.868Z,94.20
2022-11-07T06:48:13.672Z,94.20
2022-11-07T06:50:41.627Z,94.20
2022-11-07T06:53:13.957Z,94.10
2022-11-07T06:55:42.233Z,94.20
2022-11-07T06:58:10.251Z,94.20
2022-11-07T07:00:38.255Z,94.20
2022-11-07T07:03:06.349Z,94.20
2022-11-07T07:05:34.746Z,94.10
2022-11-07T07:08:02.696Z,94.20
2022-11-07T07:10:32.405Z,94.20
2022-11-07T07:13:01.477Z,94.10
2022-11-07T07:15:32.723Z,93.50
2022-11-07T07:18:10.226Z,93.70
2022-11-07T07:20:38.107Z,93.80
2022-11-07T07:23:06.040Z,93.90
2022-11-07T07:25:35.267Z,93.80
2022-11-07T07:28:03.149Z,93.80
2022-11-07T07:30:31.089Z,93.80
2022-11-07T07:32:59.332Z,93.80
2022-11-07T07:35:27.340Z,93.90
2022-11-07T07:37:55.243Z,93.80
2022-11-07T07:40:23.625Z,94.00
2022-11-07T07:42:52.947Z,94.10
2022-11-07T07:45:20.823Z,94.10
2022-11-07T07:47:48.938Z,94.10
2022-11-07T07:50:16.838Z,94.20
2022-11-07T07:52:44.799Z,94.20
2022-11-07T07:55:12.680Z,94.20
2022-11-07T07:57:41.736Z,94.20
2022-11-07T08:00:12.786Z,94.30
2022-11-07T08:02:43.430Z,94.30
2022-11-07T08:05:11.814Z,94.30
2022-11-07T08:07:46.477Z,94.30
2022-11-07T08:10:40.155Z,94.40
2022-11-07T08:13:02.831Z,94.50
2022-11-07T08:15:32.050Z,94.50
2022-11-07T08:18:02.589Z,94.60
2022-11-07T08:20:30.476Z,94.50
2022-11-07T08:23:02.594Z,94.90
2022-11-07T08:25:30.881Z,94.50
2022-11-07T08:27:59.973Z,94.60
2022-11-07T08:30:28.296Z,94.60
2022-11-07T08:33:00.329Z,94.40
2022-11-07T08:35:28.351Z,94.40
2022-11-07T08:37:56.256Z,94.10
2022-11-07T08:40:24.503Z,94.20
2022-11-07T08:42:52.401Z,94.30
2022-11-07T08:45:20.284Z,94.60
2022-11-07T08:47:48.153Z,94.40
2022-11-07T08:50:17.474Z,94.50
2022-11-07T08:52:45.326Z,94.50
2022-11-07T08:55:13.194Z,94.40
2022-11-07T08:57:41.107Z,94.40
2022-11-07T09:00:10.130Z,94.40
2022-11-07T09:05:27.239Z,94.40
2022-11-07T09:07:55.110Z,94.20
2022-11-07T09:10:23.074Z,94.30
2022-11-07T09:12:51.962Z,94.30
2022-11-07T09:15:21.267Z,94.20
2022-11-07T09:17:50.915Z,94.10
2022-11-07T09:20:19.765Z,94.10
2022-11-07T09:22:49.392Z,94.30
2022-11-07T09:25:17.427Z,94.50
2022-11-07T09:27:47.181Z,94.50
2022-11-07T09:30:15.416Z,94.50
2022-11-07T09:32:45.335Z,94.40
2022-11-07T09:35:14.041Z,94.30
2022-11-07T09:37:42.892Z,94.40
2022-11-07T09:40:23.373Z,94.30
2022-11-07T09:43:02.926Z,94.30
2022-11-07T09:45:33.332Z,94.20
2022-11-07T09:48:04.527Z,94.30
2022-11-07T09:50:36.965Z,94.10
2022-11-07T09:53:11.105Z,94.30
2022-11-07T09:55:47.718Z,94.30
2022-11-07T09:58:23.981Z,94.50
2022-11-07T10:00:52.005Z,94.50
2022-11-07T10:03:20.011Z,94.10
2022-11-07T10:05:55.220Z,93.90
2022-11-07T10:08:29.199Z,94.70
2022-11-07T10:11:01.262Z,94.80
2022-11-07T10:13:51.748Z,95.20
2022-11-07T10:16:30.062Z,95.30
2022-11-07T10:19:09.428Z,95.60
2022-11-07T10:21:46.217Z,96.20
2022-11-07T10:24:28.061Z,95.50
2022-11-07T10:26:58.204Z,95.90
2022-11-07T10:29:32.179Z,95.80
2022-11-07T10:32:13.804Z,96.10
2022-11-07T10:34:53.057Z,96.20
2022-11-07T10:37:22.095Z,96.30
2022-11-07T10:39:49.996Z,96.30
2022-11-07T10:42:22.262Z,96.30
2022-11-07T10:44:50.994Z,96.30
2022-11-07T10:47:20.435Z,96.60
2022-11-07T10:50:01.554Z,96.70
2022-11-07T10:52:31.564Z,96.70
2022-11-07T10:55:15.052Z,96.90
2022-11-07T10:57:45.567Z,97.20
2022-11-07T11:00:24.467Z,97.20
2022-11-07T11:02:53.723Z,97.20
2022-11-07T11:05:25.289Z,97.50
2022-11-07T11:07:55.292Z,97.30
2022-11-07T11:10:25.836Z,97.50
2022-11-07T11:12:55.085Z,97.50
2022-11-07T11:15:24.641Z,97.50
2022-11-07T11:18:03.796Z,97.50
2022-11-07T11:20:36.721Z,97.60
2022-11-07T11:23:07.221Z,97.80
2022-11-07T11:25:45.510Z,97.80
2022-11-07T11:28:22.684Z,97.70
2022-11-07T11:30:57.807Z,97.90
2022-11-07T11:33:33.032Z,97.80
2022-11-07T11:36:05.131Z,97.80
2022-11-07T11:38:37.481Z,97.90
2022-11-07T11:41:18.601Z,97.80
2022-11-07T11:43:51.594Z,97.90
2022-11-07T11:46:27.138Z,97.70
2022-11-07T11:49:00.712Z,97.70
2022-11-07T11:51:39.842Z,97.70
2022-11-07T11:54:10.997Z,97.70
2022-11-07T11:56:52.945Z,97.70
2022-11-07T11:59:50.965Z,97.70
2022-11-07T12:02:36.819Z,97.60
2022-11-07T12:05:20.166Z,97.70
2022-11-07T12:07:56.324Z,97.70
2022-11-07T12:10:29.837Z,97.70
2022-11-07T12:13:09.396Z,97.90
2022-11-07T12:15:53.498Z,98.00
2022-11-07T12:18:32.166Z,98.00
2022-11-07T12:21:09.945Z,97.90
2022-11-07T12:23:57.124Z,97.80
2022-11-07T12:26:29.357Z,97.20
2022-11-07T12:29:06.915Z,97.80
2022-11-07T12:31:53.118Z,97.90
2022-11-07T12:34:35.912Z,97.90
2022-11-07T12:37:24.132Z,97.80
2022-11-07T12:40:05.215Z,97.60
2022-11-07T12:42:51.584Z,97.80
2022-11-07T12:45:31.304Z,97.80
2022-11-07T12:48:19.379Z,97.90
2022-11-07T12:50:55.707Z,97.80
2022-11-07T12:53:35.010Z,98.00
2022-11-07T12:56:07.100Z,97.80
2022-11-07T12:58:37.027Z,98.00
2022-11-07T13:01:06.036Z,98.10
2022-11-07T13:03:51.215Z,97.90
2022-11-07T13:06:26.480Z,98.20
2022-11-07T13:09:03.778Z,98.10
2022-11-07T13:11:39.819Z,97.90
2022-11-07T13:14:23.945Z,97.90
2022-11-07T13:16:54.813Z,97.80
2022-11-07T13:19:32.711Z,97.70
2022-11-07T13:22:03.419Z,97.50
2022-11-07T13:24:31.965Z,97.00
2022-11-07T13:27:00.696Z,97.30
2022-11-07T13:29:36.882Z,97.20
2022-11-07T13:32:10.498Z,97.00
2022-11-07T13:34:47.945Z,97.10
2022-11-07T13:37:22.551Z,96.90
2022-11-07T13:39:53.083Z,96.80
2022-11-07T13:42:22.311Z,96.90
2022-11-07T13:44:56.101Z,96.80
2022-11-07T13:47:33.935Z,96.90
2022-11-07T13:50:09.897Z,96.80
2022-11-07T13:52:42.508Z,97.10
2022-11-07T13:55:16.592Z,96.90
2022-11-07T13:57:48.766Z,96.80
2022-11-07T14:00:21.116Z,96.70
2022-11-07T14:02:54.343Z,96.40
2022-11-07T14:05:26.953Z,96.70
2022-11-07T14:07:58.883Z,96.80
2022-11-07T14:10:29.805Z,96.70
2022-11-07T14:13:07.021Z,96.80
2022-11-07T14:15:36.192Z,96.70
2022-11-07T14:18:05.330Z,96.80
2022-11-07T14:20:34.558Z,96.90
2022-11-07T14:23:02.693Z,97.00
2022-11-07T14:25:32.699Z,96.90
2022-11-07T14:28:01.335Z,96.90
2022-11-07T14:30:31.592Z,97.10
2022-11-07T14:33:01.452Z,97.10
2022-11-07T14:35:32.277Z,96.90
2022-11-07T14:38:10.169Z,96.90
2022-11-07T14:40:38.774Z,96.90
2022-11-07T14:43:06.839Z,96.70
2022-11-07T14:48:26.859Z,96.60
2022-11-07T14:50:54.805Z,96.60
2022-11-07T14:53:26.407Z,96.70
2022-11-07T14:55:57.121Z,96.80
2022-11-07T14:58:26.318Z,96.80
2022-11-07T15:00:56.069Z,96.90
2022-11-07T15:03:31.106Z,96.80
2022-11-07T15:05:59.421Z,96.90
2022-11-07T15:08:30.998Z,96.80
2022-11-07T15:11:07.458Z,97.10
2022-11-07T15:13:35.883Z,96.80
2022-11-07T15:16:06.844Z,96.80
2022-11-07T15:18:40.105Z,96.80
2022-11-07T15:21:11.028Z,96.80
2022-11-07T15:23:40.295Z,96.90
2022-11-07T15:26:12.672Z,96.90
2022-11-07T15:28:48.823Z,95.80
2022-11-07T15:31:21.333Z,95.60
2022-11-07T15:33:49.794Z,95.70
2022-11-07T15:36:18.503Z,95.90
2022-11-07T15:38:49.257Z,95.50
2022-11-07T15:41:17.216Z,95.30
2022-11-07T15:43:45.108Z,95.70
2022-11-07T15:46:24.645Z,96.10
2022-11-07T15:48:52.710Z,96.20
2022-11-07T15:51:20.578Z,96.30
2022-11-07T15:53:49.982Z,96.40
2022-11-07T15:56:22.831Z,96.60
2022-11-07T15:58:51.221Z,96.50
2022-11-07T16:01:19.419Z,96.40
2022-11-07T16:03:47.313Z,96.40
2022-11-07T16:06:21.118Z,96.40
2022-11-07T16:08:50.336Z,96.90
2022-11-07T16:11:18.200Z,96.60
2022-11-07T16:13:46.284Z,96.60
2022-11-07T16:16:20.081Z,96.60
2022-11-07T16:18:49.797Z,96.40
2022-11-07T16:21:17.955Z,96.30
2022-11-07T16:23:47.944Z,96.40
2022-11-07T16:26:20.763Z,96.50
2022-11-07T16:28:48.611Z,96.50
2022-11-07T16:31:16.488Z,96.60
2022-11-07T16:33:44.343Z,96.60
2022-11-07T16:36:20.593Z,96.60
2022-11-07T16:38:48.669Z,96.90
2022-11-07T16:41:17.951Z,96.50
2022-11-07T16:43:46.832Z,97.00
2022-11-07T16:46:17.481Z,97.20
2022-11-07T16:48:46.915Z,97.20
2022-11-07T16:51:16.662Z,97.20
2022-11-07T16:53:45.039Z,96.90
2022-11-07T16:56:24.584Z,96.90
2022-11-07T16:58:54.472Z,96.80
2022-11-07T17:01:23.998Z,96.90
2022-11-07T17:03:52.270Z,96.80
2022-11-07T17:06:26.414Z,96.90
2022-11-07T17:08:57.315Z,96.80
2022-11-07T17:11:31.473Z,96.80
2022-11-07T17:13:59.394Z,96.80
2022-11-07T17:16:30.567Z,96.70
2022-11-07T17:18:58.431Z,96.80
2022-11-07T17:21:28.542Z,96.70
2022-11-07T17:23:58.704Z,96.80
2022-11-07T17:26:29.715Z,96.70
2022-11-07T17:28:59.966Z,96.70
2022-11-07T17:31:27.830Z,96.70
2022-11-07T17:33:55.980Z,96.70
2022-11-07T17:36:30.818Z,96.60
2022-11-07T17:39:04.228Z,96.60
2022-11-07T17:41:32.119Z,96.90
2022-11-07T17:44:02.077Z,96.60
2022-11-07T17:46:32.473Z,96.60
2022-11-07T17:49:02.598Z,96.50
2022-11-07T17:51:30.643Z,96.70
2022-11-07T17:53:59.148Z,96.70
2022-11-07T17:56:28.182Z,96.50
2022-11-07T17:58:58.178Z,96.50
2022-11-07T18:01:29.287Z,96.30
2022-11-07T18:03:57.994Z,96.40
2022-11-07T18:06:26.981Z,96.40
2022-11-07T18:08:56.887Z,96.50
2022-11-07T18:11:26.682Z,96.50
2022-11-07T18:13:56.783Z,96.40
2022-11-07T18:16:27.777Z,96.30
2022-11-07T18:18:55.721Z,96.30
2022-11-07T18:21:23.596Z,96.30
2022-11-07T18:23:51.665Z,96.20
2022-11-07T18:26:21.664Z,96.30
2022-11-07T18:28:50.930Z,96.30
2022-11-07T18:31:20.897Z,96.20
2022-11-07T18:33:52.513Z,96.40
2022-11-07T18:36:21.702Z,96.50
2022-11-07T18:38:49.919Z,96.40
2022-11-07T18:41:19.853Z,96.40
2022-11-07T18:43:48.498Z,96.30
2022-11-07T18:46:19.128Z,96.40
2022-11-07T18:48:47.067Z,96.30
2022-11-07T18:51:19.245Z,96.30
2022-11-07T18:53:48.033Z,96.30
2022-11-07T18:56:16.435Z,96.30
2022-11-07T18:58:45.562Z,96.20
2022-11-07T19:01:15.678Z,96.20
2022-11-07T19:03:44.290Z,96.20
2022-11-07T19:06:15.413Z,96.10
2022-11-07T19:08:47.179Z,96.10
2022-11-07T19:11:17.144Z,96.00
2022-11-07T19:13:46.443Z,95.60
2022-11-07T19:16:16.689Z,96.20
2022-11-07T19:18:49.199Z,96.20
2022-11-07T19:21:19.687Z,96.30
2022-11-07T19:23:49.957Z,96.30
2022-11-07T19:26:19.902Z,96.40
2022-11-07T19:28:48.207Z,95.10
2022-11-07T19:31:16.405Z,96.70
2022-11-07T19:33:45.017Z,96.60
2022-11-07T19:36:15.056Z,96.50
2022-11-07T19:38:43.264Z,96.40
2022-11-07T19:41:14.002Z,95.80
2022-11-07T19:43:42.824Z,96.30
2022-11-07T19:46:14.468Z,96.30
2022-11-07T19:48:42.742Z,96.20
2022-11-07T19:51:19.898Z,96.40
2022-11-07T19:53:53.451Z,96.10
2022-11-07T19:56:22.742Z,96.10
2022-11-07T19:58:50.603Z,96.10
2022-11-07T20:01:20.386Z,95.30
2022-11-07T20:03:49.879Z,96.10
2022-11-07T20:06:20.290Z,96.10
2022-11-07T20:08:48.520Z,96.10
2022-11-07T20:11:18.183Z,96.00
2022-11-07T20:13:47.922Z,95.90
2022-11-07T20:16:16.124Z,95.30
2022-11-07T20:18:44.386Z,95.90
2022-11-07T20:21:14.641Z,96.00
2022-11-07T20:23:43.693Z,96.00
2022-11-07T20:26:13.763Z,94.10
2022-11-07T20:28:41.722Z,95.60
2022-11-07T20:31:11.840Z,96.20
2022-11-07T20:33:39.908Z,96.20
2022-11-07T20:36:10.282Z,96.10
2022-11-07T20:38:38.543Z,96.00
2022-11-07T20:41:07.249Z,96.00
2022-11-07T20:43:35.286Z,96.00
2022-11-07T20:46:07.550Z,95.80
2022-11-07T20:48:38.304Z,95.80
2022-11-07T20:51:10.995Z,95.80
2022-11-07T20:53:39.686Z,95.80
2022-11-07T20:56:08.593Z,95.80
2022-11-07T20:58:38.251Z,95.70
2022-11-07T21:01:07.184Z,95.70
2022-11-07T21:03:36.936Z,95.80
2022-11-07T21:06:05.197Z,95.70
2022-11-07T21:08:37.130Z,95.60
2022-11-07T21:11:05.363Z,95.80
2022-11-07T21:13:33.243Z,95.80
2022-11-07T21:16:01.158Z,95.80
2022-11-07T21:18:29.031Z,95.70
2022-11-07T21:21:06.356Z,95.60
2022-11-07T21:23:34.331Z,95.60
2022-11-07T21:26:07.690Z,95.40
2022-11-07T21:28:35.878Z,95.60
2022-11-07T21:31:05.373Z,95.40
2022-11-07T21:33:33.830Z,95.50
2022-11-07T21:36:03.167Z,95.50
2022-11-07T21:38:31.020Z,95.50
2022-11-07T21:40:58.866Z,95.50
2022-11-07T21:43:26.771Z,95.60
2022-11-07T21:45:54.643Z,95.60
2022-11-07T21:48:22.505Z,95.60
2022-11-07T21:50:50.529Z,95.60
2022-11-07T21:53:20.022Z,95.50
2022-11-07T21:55:48.047Z,95.50
2022-11-07T21:58:15.919Z,95.50
2022-11-07T22:00:43.790Z,95.50
2022-11-07T22:03:11.673Z,95.50
2022-11-07T22:05:39.874Z,95.60
2022-11-07T22:08:07.788Z,95.60
2022-11-07T22:10:37.485Z,95.60
2022-11-07T22:13:07.150Z,95.40
2022-11-07T22:15:35.007Z,95.70
2022-11-07T22:18:02.944Z,95.70
2022-11-07T22:20:30.842Z,95.60
2022-11-07T22:22:59.315Z,95.70
2022-11-07T22:25:27.274Z,95.70
2022-11-07T22:27:56.518Z,95.70
2022-11-07T22:30:24.393Z,95.60
2022-11-07T22:32:52.407Z,95.80
2022-11-07T22:35:20.245Z,95.80
2022-11-07T22:37:48.127Z,95.50
2022-11-07T22:40:20.082Z,95.90
2022-11-07T22:42:48.403Z,95.90
2022-11-07T22:45:17.720Z,95.90
2022-11-07T22:47:45.712Z,95.90
2022-11-07T22:50:13.587Z,95.90
2022-11-07T22:52:41.451Z,95.90
2022-11-07T22:55:09.462Z,95.80
2022-11-07T22:57:37.296Z,95.80
2022-11-07T23:00:20.935Z,95.90
2022-11-07T23:02:51.210Z,96.00
2022-11-07T23:05:19.186Z,96.00
2022-11-07T23:07:50.039Z,95.90
2022-11-07T23:10:17.978Z,96.10
2022-11-07T23:12:45.987Z,96.20
2022-11-07T23:15:14.077Z,96.30
2022-11-07T23:17:42.274Z,96.40
2022-11-07T23:20:33.149Z,96.30
2022-11-07T23:23:02.183Z,96.30
2022-11-07T23:25:30.655Z,96.30
2022-11-07T23:27:58.525Z,96.20
2022-11-07T23:30:26.405Z,96.20
2022-11-07T23:32:54.282Z,96.00
2022-11-07T23:35:23.583Z,96.50
2022-11-07T23:37:51.500Z,96.60
2022-11-07T23:40:19.437Z,96.50
2022-11-07T23:42:47.316Z,95.40
2022-11-07T23:45:32.764Z,96.50
2022-11-07T23:48:18.476Z,96.60
2022-11-07T23:51:03.113Z,96.60
2022-11-07T23:53:50.307Z,96.60
2022-11-07T23:56:18.722Z,96.30
2022-11-07T23:59:06.412Z,96.60
